createdAt,value
2019-03-20T00:00:41.818Z,2.50
2019-03-20T00:01:46.369Z,2.60
2019-03-20T00:02:50.823Z,2.70
2019-03-20T00:03:55.164Z,2.60
2019-03-20T00:04:59.648Z,2.60
2019-03-20T00:06:04.001Z,2.60
2019-03-20T00:07:08.375Z,2.60
2019-03-20T00:08:12.782Z,2.50
2019-03-20T00:09:17.162Z,2.40
2019-03-20T00:10:21.492Z,2.40
2019-03-20T00:11:25.932Z,2.30
2019-03-20T00:12:30.344Z,2.20
2019-03-20T00:13:34.772Z,2.20
2019-03-20T00:14:39.140Z,2.10
2019-03-20T00:15:43.578Z,2.10
2019-03-20T00:16:47.947Z,2.00
2019-03-20T00:17:52.459Z,2.00
2019-03-20T00:18:56.856Z,1.90
2019-03-20T00:20:01.257Z,1.90
2019-03-20T00:21:05.699Z,1.80
2019-03-20T00:22:10.466Z,1.80
2019-03-20T00:23:14.998Z,1.70
2019-03-20T00:24:19.344Z,1.70
2019-03-20T00:25:23.839Z,1.70
2019-03-20T00:26:28.299Z,1.70
2019-03-20T00:27:32.697Z,1.70
2019-03-20T00:28:37.129Z,1.70
2019-03-20T00:29:41.503Z,1.70
2019-03-20T00:30:46.024Z,1.70
2019-03-20T00:31:50.373Z,1.70
2019-03-20T00:32:54.787Z,1.70
2019-03-20T00:33:59.185Z,1.70
2019-03-20T00:35:03.566Z,1.70
2019-03-20T00:36:08.147Z,1.70
2019-03-20T00:37:12.587Z,1.60
2019-03-20T00:38:16.958Z,1.60
2019-03-20T00:39:21.464Z,1.60
2019-03-20T00:40:25.834Z,1.70
2019-03-20T00:41:30.324Z,1.70
2019-03-20T00:42:35.582Z,1.70
2019-03-20T00:43:40.103Z,1.70
2019-03-20T00:44:44.560Z,1.70
2019-03-20T00:45:48.912Z,1.70
2019-03-20T00:46:53.344Z,1.70
2019-03-20T00:47:57.817Z,1.80
2019-03-20T00:49:02.332Z,1.80
2019-03-20T00:50:08.876Z,1.90
2019-03-20T00:51:13.242Z,1.90
2019-03-20T00:52:17.615Z,1.90
2019-03-20T00:53:22.094Z,2.00
2019-03-20T00:54:26.485Z,2.00
2019-03-20T00:55:30.893Z,1.90
2019-03-20T00:56:35.359Z,1.90
2019-03-20T00:57:39.808Z,1.90
2019-03-20T00:58:44.243Z,1.90
2019-03-20T00:59:48.609Z,1.80
2019-03-20T01:00:52.988Z,1.80
2019-03-20T01:01:57.336Z,1.70
2019-03-20T01:03:01.701Z,1.70
2019-03-20T01:04:06.243Z,1.60
2019-03-20T01:05:12.857Z,1.50
2019-03-20T01:06:17.276Z,1.50
2019-03-20T01:07:21.894Z,1.50
2019-03-20T01:08:26.247Z,1.50
2019-03-20T01:09:30.565Z,1.40
2019-03-20T01:10:34.907Z,1.40
2019-03-20T01:11:39.311Z,1.40
2019-03-20T01:12:43.723Z,1.40
2019-03-20T01:13:48.087Z,1.30
2019-03-20T01:14:52.541Z,1.30
2019-03-20T01:15:57.028Z,1.30
2019-03-20T01:17:01.329Z,1.30
2019-03-20T01:18:05.705Z,1.30
2019-03-20T01:19:10.080Z,1.30
2019-03-20T01:20:15.901Z,1.40
2019-03-20T01:21:20.686Z,1.40
2019-03-20T01:22:25.124Z,1.50
2019-03-20T01:23:29.450Z,1.50
2019-03-20T01:24:33.874Z,1.50
2019-03-20T01:25:38.295Z,1.50
2019-03-20T01:26:42.802Z,1.50
2019-03-20T01:27:47.145Z,1.50
2019-03-20T01:28:51.648Z,1.60
2019-03-20T01:29:56.091Z,1.60
2019-03-20T01:31:00.573Z,1.50
2019-03-20T01:32:05.071Z,1.50
2019-03-20T01:33:10.457Z,1.50
2019-03-20T01:34:14.925Z,1.40
2019-03-20T01:35:23.758Z,1.40
2019-03-20T01:36:25.465Z,1.40
2019-03-20T01:37:29.873Z,1.40
2019-03-20T01:38:34.321Z,1.50
2019-03-20T01:39:38.832Z,1.50
2019-03-20T01:40:43.337Z,1.50
2019-03-20T01:41:47.836Z,1.50
2019-03-20T01:42:52.280Z,1.50
2019-03-20T01:43:56.707Z,1.50
2019-03-20T01:45:01.151Z,1.50
2019-03-20T01:46:05.710Z,1.40
2019-03-20T01:47:10.120Z,1.50
2019-03-20T01:48:15.399Z,1.40
2019-03-20T01:49:19.754Z,1.40
2019-03-20T01:50:24.298Z,1.40
2019-03-20T01:51:28.738Z,1.30
2019-03-20T01:52:33.103Z,1.20
2019-03-20T01:53:37.512Z,1.20
2019-03-20T01:54:41.975Z,1.20
2019-03-20T01:55:46.312Z,1.20
2019-03-20T01:56:50.749Z,1.10
2019-03-20T01:57:55.148Z,1.10
2019-03-20T01:58:59.462Z,1.00
2019-03-20T02:00:04.216Z,1.00
2019-03-20T02:01:08.630Z,0.90
2019-03-20T02:02:13.081Z,0.90
2019-03-20T02:03:17.548Z,0.80
2019-03-20T02:04:22.009Z,0.80
2019-03-20T02:05:35.040Z,0.80
2019-03-20T02:06:32.711Z,0.80
2019-03-20T02:07:37.188Z,0.80
2019-03-20T02:08:41.605Z,0.80
2019-03-20T02:09:46.201Z,0.80
2019-03-20T02:10:50.545Z,0.80
2019-03-20T02:11:54.925Z,0.80
2019-03-20T02:12:59.405Z,0.80
2019-03-20T02:14:04.028Z,0.70
2019-03-20T02:15:11.364Z,0.70
2019-03-20T02:16:15.692Z,0.70
2019-03-20T02:17:20.236Z,0.70
2019-03-20T02:18:24.685Z,0.60
2019-03-20T02:19:30.439Z,0.60
2019-03-20T02:20:34.866Z,0.60
2019-03-20T02:21:39.284Z,0.50
2019-03-20T02:22:43.810Z,0.60
2019-03-20T02:23:48.140Z,0.50
2019-03-20T02:24:52.453Z,0.60
2019-03-20T02:25:56.844Z,0.60
2019-03-20T02:27:01.700Z,0.60
2019-03-20T02:28:06.079Z,0.60
2019-03-20T02:29:10.430Z,0.60
2019-03-20T02:30:16.399Z,0.70
2019-03-20T02:31:24.088Z,0.60
2019-03-20T02:32:28.553Z,0.60
2019-03-20T02:33:33.130Z,0.60
2019-03-20T02:34:37.507Z,0.60
2019-03-20T02:35:51.495Z,0.70
2019-03-20T02:36:47.944Z,0.60
2019-03-20T02:37:52.446Z,0.60
2019-03-20T02:38:56.930Z,0.60
2019-03-20T02:40:01.438Z,0.50
2019-03-20T02:41:05.975Z,0.50
2019-03-20T02:42:10.358Z,0.50
2019-03-20T02:43:14.814Z,0.40
2019-03-20T02:44:19.122Z,0.40
2019-03-20T02:45:23.816Z,0.40
2019-03-20T02:46:28.182Z,0.40
2019-03-20T02:47:32.627Z,0.40
2019-03-20T02:48:36.977Z,0.40
2019-03-20T02:49:41.349Z,0.50
2019-03-20T02:50:45.749Z,0.60
2019-03-20T02:51:50.163Z,0.60
2019-03-20T02:52:54.485Z,0.60
2019-03-20T02:53:58.981Z,0.60
2019-03-20T02:55:03.418Z,0.60
2019-03-20T02:56:07.844Z,0.60
2019-03-20T02:57:12.339Z,0.50
2019-03-20T02:58:17.029Z,0.60
2019-03-20T02:59:21.787Z,0.50
2019-03-20T03:00:29.206Z,0.50
2019-03-20T03:01:33.610Z,0.50
2019-03-20T03:02:37.923Z,0.50
2019-03-20T03:03:42.325Z,0.50
2019-03-20T03:04:46.730Z,0.50
2019-03-20T03:06:05.664Z,0.50
2019-03-20T03:06:57.197Z,0.50
2019-03-20T03:08:01.645Z,0.50
2019-03-20T03:09:08.096Z,0.50
2019-03-20T03:10:12.857Z,0.40
2019-03-20T03:11:17.263Z,0.40
2019-03-20T03:12:21.561Z,0.40
2019-03-20T03:13:25.893Z,0.40
2019-03-20T03:14:30.287Z,0.40
2019-03-20T03:15:35.114Z,0.40
2019-03-20T03:16:39.507Z,0.40
2019-03-20T03:17:44.066Z,0.40
2019-03-20T03:18:48.582Z,0.40
2019-03-20T03:19:52.993Z,0.40
2019-03-20T03:20:57.351Z,0.30
2019-03-20T03:22:01.902Z,0.30
2019-03-20T03:23:06.476Z,0.30
2019-03-20T03:24:10.885Z,0.30
2019-03-20T03:25:34.425Z,0.30
2019-03-20T03:26:38.854Z,0.30
2019-03-20T03:27:43.371Z,0.30
2019-03-20T03:28:47.837Z,0.30
2019-03-20T03:29:52.328Z,0.30
2019-03-20T03:30:56.746Z,0.30
2019-03-20T03:32:01.110Z,0.30
2019-03-20T03:33:05.536Z,0.30
2019-03-20T03:34:12.288Z,0.30
2019-03-20T03:35:19.425Z,0.30
2019-03-20T03:36:23.038Z,0.40
2019-03-20T03:37:27.409Z,0.40
2019-03-20T03:38:31.885Z,0.40
2019-03-20T03:39:36.307Z,0.50
2019-03-20T03:40:41.479Z,0.50
2019-03-20T03:41:45.819Z,0.50
2019-03-20T03:42:50.318Z,0.50
2019-03-20T03:43:54.645Z,0.60
2019-03-20T03:44:59.093Z,0.60
2019-03-20T03:46:03.486Z,0.70
2019-03-20T03:47:08.039Z,0.80
2019-03-20T03:48:12.561Z,0.90
2019-03-20T03:49:16.972Z,1.00
2019-03-20T03:50:21.468Z,1.00
2019-03-20T03:51:25.889Z,1.10
2019-03-20T03:52:30.337Z,1.10
2019-03-20T03:53:35.129Z,1.10
2019-03-20T03:54:39.676Z,1.10
2019-03-20T03:55:44.063Z,1.00
2019-03-20T03:56:49.142Z,1.00
2019-03-20T03:57:53.640Z,1.00
2019-03-20T03:58:58.171Z,1.00
2019-03-20T04:00:02.786Z,1.10
2019-03-20T04:01:07.397Z,1.10
2019-03-20T04:02:11.989Z,1.20
2019-03-20T04:03:16.340Z,1.30
2019-03-20T04:04:20.721Z,1.30
2019-03-20T04:05:25.653Z,1.30
2019-03-20T04:06:35.909Z,1.20
2019-03-20T04:07:36.793Z,1.20
2019-03-20T04:08:41.398Z,1.20
2019-03-20T04:09:45.854Z,1.20
2019-03-20T04:10:50.253Z,1.10
2019-03-20T04:11:54.720Z,1.10
2019-03-20T04:12:59.467Z,1.10
2019-03-20T04:14:03.823Z,1.10
2019-03-20T04:15:10.108Z,1.10
2019-03-20T04:16:14.512Z,1.10
2019-03-20T04:17:27.243Z,1.10
2019-03-20T04:18:31.869Z,1.20
2019-03-20T04:19:39.209Z,1.30
2019-03-20T04:20:43.616Z,1.30
2019-03-20T04:21:48.074Z,1.20
2019-03-20T04:22:52.484Z,1.20
2019-03-20T04:23:56.877Z,1.20
2019-03-20T04:25:01.270Z,1.20
2019-03-20T04:26:05.842Z,1.30
2019-03-20T04:27:10.288Z,1.20
2019-03-20T04:28:14.786Z,1.30
2019-03-20T04:29:19.227Z,1.40
2019-03-20T04:30:23.531Z,1.50
2019-03-20T04:31:27.887Z,1.60
2019-03-20T04:32:32.283Z,1.70
2019-03-20T04:33:36.971Z,1.80
2019-03-20T04:34:41.376Z,1.80
2019-03-20T04:35:45.773Z,1.90
2019-03-20T04:36:50.183Z,1.90
2019-03-20T04:37:54.657Z,2.00
2019-03-20T04:38:59.041Z,2.00
2019-03-20T04:40:03.387Z,2.00
2019-03-20T04:41:07.741Z,2.00
2019-03-20T04:42:12.146Z,2.00
2019-03-20T04:43:16.599Z,2.00
2019-03-20T04:44:20.964Z,2.10
2019-03-20T04:45:26.060Z,2.10
2019-03-20T04:46:30.471Z,2.20
2019-03-20T04:47:37.316Z,2.30
2019-03-20T04:48:41.758Z,2.30
2019-03-20T04:49:46.088Z,2.30
2019-03-20T04:50:50.580Z,2.40
2019-03-20T04:51:54.977Z,2.60
2019-03-20T04:52:59.432Z,2.40
2019-03-20T04:54:03.870Z,2.40
2019-03-20T04:55:08.405Z,2.40
2019-03-20T04:56:12.880Z,2.40
2019-03-20T04:57:20.329Z,2.40
2019-03-20T04:58:24.713Z,2.30
2019-03-20T04:59:29.127Z,2.30
2019-03-20T05:00:33.557Z,2.30
2019-03-20T05:01:37.894Z,2.30
2019-03-20T05:02:42.307Z,2.30
2019-03-20T05:03:46.669Z,2.30
2019-03-20T05:04:51.028Z,2.30
2019-03-20T05:05:55.568Z,2.30
2019-03-20T05:06:59.957Z,2.20
2019-03-20T05:08:04.385Z,2.20
2019-03-20T05:09:08.772Z,2.10
2019-03-20T05:10:13.546Z,2.10
2019-03-20T05:11:18.109Z,2.00
2019-03-20T05:12:22.525Z,2.00
2019-03-20T05:13:27.356Z,2.00
2019-03-20T05:14:31.997Z,1.90
2019-03-20T05:15:36.378Z,1.90
2019-03-20T05:16:40.817Z,1.80
2019-03-20T05:17:45.313Z,1.80
2019-03-20T05:18:49.755Z,1.80
2019-03-20T05:19:54.164Z,1.80
2019-03-20T05:20:58.512Z,1.80
2019-03-20T05:22:02.907Z,1.80
2019-03-20T05:23:08.490Z,1.90
2019-03-20T05:24:13.165Z,1.90
2019-03-20T05:25:17.613Z,1.80
2019-03-20T05:26:21.960Z,1.80
2019-03-20T05:27:26.545Z,1.70
2019-03-20T05:28:30.977Z,1.70
2019-03-20T05:29:35.996Z,1.60
2019-03-20T05:30:40.382Z,1.70
2019-03-20T05:31:44.881Z,1.80
2019-03-20T05:32:49.313Z,1.80
2019-03-20T05:33:53.829Z,1.80
2019-03-20T05:34:58.361Z,1.80
2019-03-20T05:36:04.251Z,1.90
2019-03-20T05:37:10.692Z,1.80
2019-03-20T05:38:15.001Z,1.80
2019-03-20T05:39:19.467Z,1.80
2019-03-20T05:40:23.864Z,1.80
2019-03-20T05:41:28.328Z,1.70
2019-03-20T05:42:32.795Z,1.70
2019-03-20T05:43:37.593Z,1.60
2019-03-20T05:44:42.124Z,1.60
2019-03-20T05:45:46.635Z,1.60
2019-03-20T05:46:51.006Z,1.60
2019-03-20T05:47:55.360Z,1.60
2019-03-20T05:48:59.792Z,1.50
2019-03-20T05:50:04.426Z,1.60
2019-03-20T05:51:08.894Z,1.60
2019-03-20T05:52:13.442Z,1.60
2019-03-20T05:53:17.908Z,1.60
2019-03-20T05:54:22.362Z,1.60
2019-03-20T05:55:27.278Z,1.60
2019-03-20T05:56:31.951Z,1.70
2019-03-20T05:57:36.663Z,1.70
2019-03-20T05:58:41.368Z,1.70
2019-03-20T05:59:46.006Z,1.80
2019-03-20T06:00:50.436Z,1.80
2019-03-20T06:01:54.804Z,1.80
2019-03-20T06:02:59.196Z,1.90
2019-03-20T06:04:03.715Z,2.00
2019-03-20T06:05:08.256Z,2.00
2019-03-20T06:06:12.757Z,2.10
2019-03-20T06:07:21.474Z,2.10
2019-03-20T06:08:23.476Z,2.20
2019-03-20T06:09:28.150Z,2.30
2019-03-20T06:10:32.593Z,2.30
2019-03-20T06:11:37.571Z,2.40
2019-03-20T06:12:42.207Z,2.50
2019-03-20T06:13:46.713Z,2.60
2019-03-20T06:14:51.338Z,2.70
2019-03-20T06:15:55.935Z,2.80
2019-03-20T06:17:00.346Z,3.00
2019-03-20T06:18:04.806Z,3.10
2019-03-20T06:19:09.378Z,3.40
2019-03-20T06:20:14.050Z,3.70
2019-03-20T06:21:18.586Z,4.00
2019-03-20T06:22:23.102Z,4.20
2019-03-20T06:23:28.174Z,4.50
2019-03-20T06:24:32.651Z,4.90
2019-03-20T06:25:37.508Z,5.20
2019-03-20T06:26:41.944Z,5.50
2019-03-20T06:27:46.365Z,5.90
2019-03-20T06:28:50.819Z,6.30
2019-03-20T06:29:55.268Z,6.60
2019-03-20T06:30:59.695Z,7.00
2019-03-20T06:32:04.065Z,7.30
2019-03-20T06:33:08.555Z,7.50
2019-03-20T06:34:13.068Z,7.70
2019-03-20T06:35:17.554Z,7.80
2019-03-20T06:36:22.010Z,7.80
2019-03-20T06:37:32.584Z,7.90
2019-03-20T06:38:32.664Z,7.90
2019-03-20T06:39:37.142Z,7.80
2019-03-20T06:40:41.642Z,7.80
2019-03-20T06:41:46.132Z,7.70
2019-03-20T06:42:50.548Z,7.60
2019-03-20T06:43:55.004Z,7.50
2019-03-20T06:44:59.336Z,7.40
2019-03-20T06:46:03.778Z,7.30
2019-03-20T06:47:08.305Z,7.20
2019-03-20T06:48:15.593Z,7.20
2019-03-20T06:49:20.080Z,7.20
2019-03-20T06:50:24.439Z,7.10
2019-03-20T06:51:28.996Z,7.00
2019-03-20T06:52:33.361Z,6.90
2019-03-20T06:53:39.536Z,6.90
2019-03-20T06:54:43.930Z,6.80
2019-03-20T06:55:48.298Z,6.80
2019-03-20T06:56:52.765Z,6.70
2019-03-20T06:57:57.120Z,6.70
2019-03-20T06:59:48.704Z,6.70
2019-03-20T07:01:07.134Z,6.60
2019-03-20T07:02:11.354Z,6.50
2019-03-20T07:03:52.626Z,6.40
2019-03-20T07:05:31.362Z,6.30
2019-03-20T07:07:05.795Z,6.20
2019-03-20T07:08:10.046Z,6.10
2019-03-20T07:09:42.385Z,6.10
2019-03-20T07:11:09.224Z,6.10
2019-03-20T07:12:13.642Z,6.20
2019-03-20T07:13:18.161Z,6.30
2019-03-20T07:14:22.620Z,6.70
2019-03-20T07:15:28.094Z,7.20
2019-03-20T07:16:32.847Z,7.80
2019-03-20T07:17:37.310Z,8.50
2019-03-20T07:18:41.709Z,9.10
2019-03-20T07:19:46.188Z,9.60
2019-03-20T07:20:50.633Z,9.80
2019-03-20T07:21:55.152Z,10.00
2019-03-20T07:22:59.633Z,10.00
2019-03-20T07:24:04.263Z,10.00
2019-03-20T07:25:08.614Z,9.90
2019-03-20T07:26:13.117Z,9.70
2019-03-20T07:27:17.521Z,9.40
2019-03-20T07:28:22.134Z,9.20
2019-03-20T07:29:26.841Z,9.10
2019-03-20T07:30:31.702Z,8.80
2019-03-20T07:31:36.087Z,8.80
2019-03-20T07:32:40.392Z,8.70
2019-03-20T07:33:44.877Z,8.80
2019-03-20T07:34:49.247Z,9.20
2019-03-20T07:35:53.754Z,9.60
2019-03-20T07:36:58.101Z,10.10
2019-03-20T07:38:02.489Z,10.50
2019-03-20T07:39:09.237Z,11.10
2019-03-20T07:40:13.863Z,11.50
2019-03-20T07:41:18.376Z,12.00
2019-03-20T07:42:22.798Z,12.30
2019-03-20T07:43:27.309Z,12.30
2019-03-20T07:44:31.740Z,12.50
2019-03-20T07:45:36.088Z,12.40
2019-03-20T07:46:40.557Z,12.60
2019-03-20T07:47:44.897Z,12.50
2019-03-20T07:48:49.299Z,12.50
2019-03-20T07:49:53.799Z,12.50
2019-03-20T07:50:58.160Z,12.30
2019-03-20T07:52:02.615Z,12.30
2019-03-20T07:53:07.024Z,12.20
2019-03-20T07:54:14.368Z,12.20
2019-03-20T07:55:18.816Z,12.00
2019-03-20T07:56:23.201Z,11.90
2019-03-20T07:57:27.970Z,11.80
2019-03-20T07:58:32.364Z,11.80
2019-03-20T07:59:37.789Z,11.90
2019-03-20T08:00:42.272Z,11.80
2019-03-20T08:01:47.053Z,11.80
2019-03-20T08:02:51.742Z,11.80
2019-03-20T08:03:56.261Z,11.90
2019-03-20T08:05:00.692Z,12.00
2019-03-20T08:06:05.709Z,12.20
2019-03-20T08:07:10.127Z,12.40
2019-03-20T08:08:14.741Z,12.30
2019-03-20T08:09:19.183Z,12.20
2019-03-20T08:10:23.669Z,12.00
2019-03-20T08:11:28.421Z,11.80
2019-03-20T08:12:32.880Z,11.60
2019-03-20T08:13:37.307Z,11.60
2019-03-20T08:14:41.762Z,11.70
2019-03-20T08:15:46.136Z,12.00
2019-03-20T08:16:50.708Z,12.30
2019-03-20T08:17:55.067Z,12.70
2019-03-20T08:18:59.424Z,13.10
2019-03-20T08:20:04.106Z,13.40
2019-03-20T08:21:08.580Z,13.50
2019-03-20T08:22:13.246Z,13.30
2019-03-20T08:23:17.668Z,13.30
2019-03-20T08:24:22.181Z,13.30
2019-03-20T08:25:26.750Z,13.30
2019-03-20T08:26:31.444Z,13.00
2019-03-20T08:27:35.921Z,12.90
2019-03-20T08:28:40.381Z,13.00
2019-03-20T08:29:44.772Z,12.90
2019-03-20T08:30:49.331Z,13.00
2019-03-20T08:31:53.817Z,13.10
2019-03-20T08:32:58.198Z,13.20
2019-03-20T08:34:02.595Z,13.40
2019-03-20T08:35:07.155Z,13.40
2019-03-20T08:36:11.723Z,13.60
2019-03-20T08:37:16.173Z,13.70
2019-03-20T08:38:20.662Z,13.70
2019-03-20T08:39:25.069Z,13.70
2019-03-20T08:40:32.293Z,13.80
2019-03-20T08:41:36.722Z,13.90
2019-03-20T08:42:41.314Z,14.00
2019-03-20T08:43:45.799Z,14.00
2019-03-20T08:44:50.209Z,13.90
2019-03-20T08:45:54.654Z,13.80
2019-03-20T08:46:59.127Z,13.80
2019-03-20T08:48:03.598Z,13.80
2019-03-20T08:49:08.051Z,13.90
2019-03-20T08:50:14.961Z,14.00
2019-03-20T08:51:19.617Z,14.10
2019-03-20T08:52:24.045Z,14.20
2019-03-20T08:53:31.561Z,14.40
2019-03-20T08:54:35.975Z,14.60
2019-03-20T08:55:40.369Z,14.70
2019-03-20T08:56:44.889Z,14.80
2019-03-20T08:57:49.464Z,14.90
2019-03-20T08:58:53.939Z,15.10
2019-03-20T08:59:58.352Z,15.20
2019-03-20T09:01:02.889Z,15.50
2019-03-20T09:02:07.404Z,15.80
2019-03-20T09:03:12.169Z,16.10
2019-03-20T09:04:16.697Z,16.40
2019-03-20T09:05:21.048Z,16.40
2019-03-20T09:06:25.653Z,16.40
2019-03-20T09:07:30.189Z,16.50
2019-03-20T09:08:34.888Z,16.50
2019-03-20T09:09:39.269Z,16.40
2019-03-20T09:10:43.729Z,16.50
2019-03-20T09:11:48.200Z,16.50
2019-03-20T09:12:52.706Z,16.50
2019-03-20T09:13:57.166Z,16.30
2019-03-20T09:15:01.616Z,16.10
2019-03-20T09:16:06.068Z,15.90
2019-03-20T09:17:12.409Z,15.60
2019-03-20T09:18:16.554Z,15.60
2019-03-20T09:19:20.975Z,15.50
2019-03-20T09:20:25.371Z,15.50
2019-03-20T09:21:29.863Z,15.40
2019-03-20T09:22:34.645Z,15.40
2019-03-20T09:23:40.898Z,15.20
2019-03-20T09:24:45.312Z,15.10
2019-03-20T09:25:49.751Z,14.80
2019-03-20T09:27:13.263Z,14.70
2019-03-20T09:28:17.769Z,14.70
2019-03-20T09:29:22.212Z,14.80
2019-03-20T09:30:26.573Z,14.80
2019-03-20T09:31:31.076Z,14.80
2019-03-20T09:32:35.419Z,14.80
2019-03-20T09:33:39.872Z,14.90
2019-03-20T09:34:44.359Z,15.00
2019-03-20T09:35:48.742Z,15.10
2019-03-20T09:36:53.086Z,15.20
2019-03-20T09:37:57.459Z,15.20
2019-03-20T09:39:01.832Z,15.30
2019-03-20T09:40:06.791Z,15.30
2019-03-20T09:41:11.307Z,15.40
2019-03-20T09:42:15.721Z,15.40
2019-03-20T09:43:20.107Z,15.40
2019-03-20T09:44:24.482Z,15.50
2019-03-20T09:45:28.867Z,15.50
2019-03-20T09:46:33.231Z,15.60
2019-03-20T09:47:37.601Z,15.60
2019-03-20T09:48:41.945Z,15.70
2019-03-20T09:49:48.386Z,15.70
2019-03-20T09:50:52.812Z,15.70
2019-03-20T09:51:57.214Z,15.70
2019-03-20T09:53:01.601Z,15.80
2019-03-20T09:54:06.009Z,16.00
2019-03-20T09:55:10.585Z,16.10
2019-03-20T09:56:15.006Z,16.10
2019-03-20T09:57:19.371Z,16.10
2019-03-20T09:58:23.896Z,16.10
2019-03-20T09:59:28.328Z,16.00
2019-03-20T10:00:32.996Z,16.10
2019-03-20T10:01:37.389Z,16.20
2019-03-20T10:02:41.777Z,16.20
2019-03-20T10:03:46.564Z,16.00
2019-03-20T10:04:50.967Z,15.80
2019-03-20T10:05:55.282Z,15.70
2019-03-20T10:06:59.612Z,15.80
2019-03-20T10:08:04.004Z,15.70
2019-03-20T10:09:09.436Z,15.80
2019-03-20T10:10:18.532Z,15.90
2019-03-20T10:11:22.927Z,15.90
2019-03-20T10:12:27.280Z,16.00
2019-03-20T10:13:31.863Z,16.10
2019-03-20T10:14:36.329Z,16.10
2019-03-20T10:15:40.669Z,16.10
2019-03-20T10:16:45.098Z,16.10
2019-03-20T10:17:52.514Z,16.20
2019-03-20T10:18:56.925Z,16.20
2019-03-20T10:20:01.421Z,16.20
2019-03-20T10:21:05.872Z,16.10
2019-03-20T10:22:10.221Z,16.20
2019-03-20T10:23:14.692Z,16.30
2019-03-20T10:24:19.058Z,16.40
2019-03-20T10:25:23.452Z,16.50
2019-03-20T10:26:27.898Z,16.60
2019-03-20T10:27:32.688Z,16.70
2019-03-20T10:28:37.439Z,16.90
2019-03-20T10:29:41.771Z,17.00
2019-03-20T10:30:46.157Z,17.20
2019-03-20T10:31:50.562Z,17.20
2019-03-20T10:32:55.073Z,17.20
2019-03-20T10:33:59.547Z,17.20
2019-03-20T10:35:04.139Z,17.30
2019-03-20T10:36:08.452Z,17.20
2019-03-20T10:37:13.074Z,17.30
2019-03-20T10:38:17.435Z,17.30
2019-03-20T10:39:21.941Z,17.40
2019-03-20T10:40:26.569Z,17.50
2019-03-20T10:41:30.880Z,17.60
2019-03-20T10:42:35.262Z,17.70
2019-03-20T10:43:39.791Z,17.70
2019-03-20T10:44:44.218Z,17.70
2019-03-20T10:45:48.634Z,17.70
2019-03-20T10:46:53.205Z,17.60
2019-03-20T10:47:57.614Z,17.40
2019-03-20T10:49:01.967Z,17.20
2019-03-20T10:50:08.219Z,17.00
2019-03-20T10:51:12.780Z,16.70
2019-03-20T10:52:17.233Z,16.70
2019-03-20T10:53:21.589Z,16.80
2019-03-20T10:54:26.116Z,16.80
2019-03-20T10:55:30.576Z,16.90
2019-03-20T10:56:35.210Z,17.00
2019-03-20T10:57:39.556Z,17.20
2019-03-20T10:58:43.949Z,17.20
2019-03-20T10:59:48.465Z,17.40
2019-03-20T11:00:52.911Z,17.50
2019-03-20T11:01:57.295Z,17.50
2019-03-20T11:03:01.658Z,17.60
2019-03-20T11:04:06.124Z,17.60
2019-03-20T11:05:10.831Z,17.60
2019-03-20T11:06:15.264Z,17.50
2019-03-20T11:07:19.765Z,17.50
2019-03-20T11:08:24.111Z,17.40
2019-03-20T11:09:28.591Z,17.30
2019-03-20T11:10:33.139Z,17.30
2019-03-20T11:11:37.501Z,17.20
2019-03-20T11:12:42.069Z,17.30
2019-03-20T11:13:46.427Z,17.30
2019-03-20T11:14:50.838Z,17.40
2019-03-20T11:15:55.260Z,17.40
2019-03-20T11:16:59.668Z,17.30
2019-03-20T11:18:04.430Z,17.30
2019-03-20T11:19:09.141Z,17.30
2019-03-20T11:20:14.961Z,17.10
2019-03-20T11:21:19.369Z,16.90
2019-03-20T11:22:23.734Z,16.90
2019-03-20T11:23:28.140Z,16.90
2019-03-20T11:24:32.700Z,17.00
2019-03-20T11:25:37.103Z,16.90
2019-03-20T11:26:41.494Z,17.00
2019-03-20T11:27:46.028Z,17.00
2019-03-20T11:28:50.362Z,17.10
2019-03-20T11:29:54.843Z,17.10
2019-03-20T11:30:59.280Z,17.10
2019-03-20T11:32:04.121Z,17.10
2019-03-20T11:33:10.521Z,17.20
2019-03-20T11:34:15.819Z,17.20
2019-03-20T11:35:20.430Z,17.20
2019-03-20T11:36:24.978Z,17.30
2019-03-20T11:37:29.365Z,17.40
2019-03-20T11:38:33.818Z,17.40
2019-03-20T11:39:39.397Z,17.40
2019-03-20T11:40:43.798Z,17.50
2019-03-20T11:41:48.179Z,17.50
2019-03-20T11:42:52.504Z,17.50
2019-03-20T11:43:56.952Z,17.60
2019-03-20T11:45:01.317Z,17.60
2019-03-20T11:46:05.779Z,17.70
2019-03-20T11:47:10.231Z,17.80
2019-03-20T11:48:14.579Z,17.90
2019-03-20T11:49:18.932Z,17.80
2019-03-20T11:50:28.632Z,17.90
2019-03-20T11:51:33.307Z,17.90
2019-03-20T11:52:37.955Z,18.00
2019-03-20T11:53:42.428Z,17.90
2019-03-20T11:54:46.955Z,17.90
2019-03-20T11:55:51.556Z,17.90
2019-03-20T11:56:56.208Z,17.80
2019-03-20T11:58:00.664Z,17.70
2019-03-20T11:59:05.277Z,17.60
2019-03-20T12:00:12.140Z,17.60
2019-03-20T12:01:16.606Z,17.40
2019-03-20T12:02:27.949Z,17.40
2019-03-20T12:03:27.887Z,17.40
2019-03-20T12:04:32.716Z,17.40
2019-03-20T12:05:37.211Z,17.40
2019-03-20T12:06:49.984Z,17.40
2019-03-20T12:07:54.508Z,17.40
2019-03-20T12:08:59.519Z,17.40
2019-03-20T12:10:04.899Z,17.20
2019-03-20T12:11:11.294Z,17.10
2019-03-20T12:12:15.782Z,17.10
2019-03-20T12:13:20.341Z,16.90
2019-03-20T12:14:24.951Z,16.80
2019-03-20T12:15:29.547Z,16.80
2019-03-20T12:16:36.786Z,16.70
2019-03-20T12:17:41.408Z,16.60
2019-03-20T12:18:45.893Z,16.40
2019-03-20T12:19:50.253Z,16.40
2019-03-20T12:20:54.837Z,16.30
2019-03-20T12:21:59.438Z,16.20
2019-03-20T12:23:04.376Z,16.20
2019-03-20T12:24:09.090Z,16.10
2019-03-20T12:25:16.146Z,16.10
2019-03-20T12:26:20.585Z,16.10
2019-03-20T12:27:25.225Z,16.10
2019-03-20T12:28:29.805Z,16.20
2019-03-20T12:29:34.905Z,16.20
2019-03-20T12:30:39.824Z,16.30
2019-03-20T12:31:44.205Z,16.40
2019-03-20T12:32:48.702Z,16.30
2019-03-20T12:33:53.348Z,16.40
2019-03-20T12:34:57.875Z,16.50
2019-03-20T12:36:04.800Z,16.50
2019-03-20T12:37:09.551Z,16.60
2019-03-20T12:38:15.294Z,16.70
2019-03-20T12:39:20.045Z,16.70
2019-03-20T12:40:26.131Z,16.70
2019-03-20T12:41:30.594Z,16.80
2019-03-20T12:42:35.122Z,16.80
2019-03-20T12:43:39.894Z,16.80
2019-03-20T12:44:44.440Z,16.80
2019-03-20T12:45:48.977Z,16.80
2019-03-20T12:46:53.445Z,16.70
2019-03-20T12:47:57.960Z,16.80
2019-03-20T12:49:02.434Z,16.70
2019-03-20T12:50:07.453Z,16.60
2019-03-20T12:51:12.052Z,16.60
2019-03-20T12:52:16.727Z,16.60
2019-03-20T12:53:21.661Z,16.60
2019-03-20T12:54:26.234Z,16.60
2019-03-20T12:55:31.221Z,16.50
2019-03-20T12:56:35.808Z,16.40
2019-03-20T12:57:40.286Z,16.30
2019-03-20T12:58:44.780Z,16.10
2019-03-20T12:59:49.330Z,16.00
2019-03-20T13:00:54.654Z,16.00
2019-03-20T13:01:59.259Z,16.00
2019-03-20T13:03:03.885Z,16.00
2019-03-20T13:04:08.606Z,16.00
2019-03-20T13:05:13.838Z,15.90
2019-03-20T13:06:18.386Z,15.80
2019-03-20T13:07:22.781Z,15.70
2019-03-20T13:08:27.369Z,15.70
2019-03-20T13:09:32.091Z,15.70
2019-03-20T13:10:36.825Z,15.60
2019-03-20T13:11:41.410Z,15.60
2019-03-20T13:12:46.166Z,15.50
2019-03-20T13:13:52.324Z,15.40
2019-03-20T13:14:56.948Z,15.20
2019-03-20T13:16:02.115Z,15.10
2019-03-20T13:17:06.773Z,15.10
2019-03-20T13:18:11.437Z,15.00
2019-03-20T13:19:15.943Z,15.00
2019-03-20T13:20:20.836Z,15.00
2019-03-20T13:21:25.356Z,14.90
2019-03-20T13:22:30.079Z,14.80
2019-03-20T13:23:34.983Z,14.70
2019-03-20T13:24:39.750Z,14.70
2019-03-20T13:25:44.492Z,14.70
2019-03-20T13:26:49.166Z,14.70
2019-03-20T13:27:57.190Z,14.60
2019-03-20T13:29:01.791Z,14.60
2019-03-20T13:30:19.833Z,14.60
2019-03-20T13:31:19.142Z,14.60
2019-03-20T13:32:23.841Z,14.50
2019-03-20T13:33:28.410Z,14.50
2019-03-20T13:34:35.950Z,14.50
2019-03-20T13:35:40.466Z,14.50
2019-03-20T13:36:45.212Z,14.60
2019-03-20T13:37:49.617Z,14.60
2019-03-20T13:38:56.477Z,14.60
2019-03-20T13:40:00.744Z,14.60
2019-03-20T13:41:05.523Z,14.60
2019-03-20T13:42:10.119Z,14.60
2019-03-20T13:43:14.581Z,14.60
2019-03-20T13:44:19.295Z,14.60
2019-03-20T13:45:23.998Z,14.60
2019-03-20T13:46:28.699Z,14.60
2019-03-20T13:47:33.233Z,14.60
2019-03-20T13:48:37.785Z,14.60
2019-03-20T13:49:42.863Z,14.70
2019-03-20T13:50:47.552Z,14.70
2019-03-20T13:51:52.925Z,14.80
2019-03-20T13:52:57.616Z,14.80
2019-03-20T13:54:02.194Z,14.70
2019-03-20T13:55:07.187Z,14.70
2019-03-20T13:56:11.851Z,14.80
2019-03-20T13:57:16.354Z,14.80
2019-03-20T13:58:20.923Z,14.80
2019-03-20T13:59:25.415Z,14.80
2019-03-20T14:00:30.033Z,14.80
2019-03-20T14:01:34.447Z,14.80
2019-03-20T14:02:39.151Z,14.80
2019-03-20T14:03:43.676Z,14.80
2019-03-20T14:04:48.194Z,14.80
2019-03-20T14:05:54.360Z,14.90
2019-03-20T14:06:59.044Z,14.90
2019-03-20T14:08:03.733Z,14.90
2019-03-20T14:09:09.114Z,15.00
2019-03-20T14:10:24.568Z,14.90
2019-03-20T14:11:21.762Z,15.00
2019-03-20T14:12:26.325Z,15.00